Aérodrome :
LOGIN :

S'inscrire | Disclaimer

   EN    FR    IT 

 










Légende :    VFR   VFR Marginal   IFR   IFR Intensif   IFR Très Intensif
Visi : 
Plafond : 
>= 8 km
>= 3000ft
5 à 8 km
1000 à 3000 ft
1500m à 5 km
500 à 1000 ft
800 à 1500m
200 à 500 ft
< 800m
< 200 ft
Symboles :   Orages  Brouillard  Fortes neiges  Fortes précipitations  Vent > 20 kt
SIGMETs :   Divers  Orages  Givrage  Turbulence  Onde Orograph.  Cendres Volcan.







- Altitude de l'aérodrome : 45 ft
- Code IATA : CEG
- Voir les cartes d'approche


EGNR - Hawarden Chester

DERNIER METAR :
  • 171120Z 15011KT 9999 -RA FEW000 SCT025 BKN045 07/06 Q1018

METARs EXPIRÉS :
  • 171050Z 17006KT 140V220 9999 VCSH FEW015 BKN045 06/06 Q1019
  • 171020Z 15007KT 9999 -RA FEW018 BKN049 06/05 Q1019 RERA
  • 170950Z 16005KT 9999 RA FEW001 SCT018 BKN049 05/04 Q1020
  • 170920Z 16010KT 9999 RA FEW020 BKN049 06/05 Q1019
  • 170850Z 16008KT 9999 -RA FEW020 BKN049 05/04 Q1020

TAF TAF EGNR
Valide du 17 à 09h jusqu'au 17 à 18h UTC


170928Z 1709/1718 19010KT 9999 FEW010 SCT030
TEMPO 1709/1716 8000 -RA BKN012
PROB30
TEMPO 1709/1716 4000 RADZ BKN008
BECMG 1715/1718 30012KT
Pas de NOTAMs connus pour ce terrain.



MET'MAP, la Météo Aéronautique d'un coup d'oeil ! - Copyright ORBIFLY Décembre 2007 - Disclaimer

ORBIFLY MET'MAP TEAM :

Programmation & Développement : Alexandra Zaïnal
Conception & Développement : Baudouin d'Aumeries
Co-Programmation & Développement : Marc-Olivier Méhu
Soutien technique & logistique : Manuel Goepfert

Contact : metmap@orbifly.com




SOURCES & CREDITS :

   NOAA